Time;durP1;ratioP1;P1;durP2;ratioP2;P2;SDS_P1;SDS_P2;PMS_P1;PMS_P2;Temp;Humidity;BMP_temperature;BMP_pressure;BME280_temperature;BME280_humidity;BME280_pressure;Samples;Min_cycle;Max_cycle;Signal;HPM_P1;HPM_P2
2022/11/15 00:02:11;;;;;;;;;;;16.10;48.90;;;;;;5074549;28;20423;-86
2022/11/15 00:04:36;;;;;;;;;;;16.20;48.80;;;;;;5072103;28;19927;-87
2022/11/15 00:07:02;;;;;;;;;;;16.20;48.90;;;;;;5072948;28;19908;-87
2022/11/15 00:09:27;;;;;;;;;;;16.20;48.90;;;;;;5073683;28;20275;-88
2022/11/15 00:11:53;;;;;;;;;;;16.30;48.80;;;;;;5075072;28;19909;-87
2022/11/15 00:14:18;;;;;;;;;;;16.30;48.70;;;;;;5073064;28;19919;-88
2022/11/15 00:16:44;;;;;;;;;;;16.30;48.80;;;;;;5068210;28;19928;-88
2022/11/15 00:19:10;;;;;;;;;;;16.30;48.70;;;;;;5072265;28;19920;-87
2022/11/15 00:21:35;;;;;;;;;;;16.40;48.80;;;;;;5066666;28;19916;-88
2022/11/15 00:24:01;;;;;;;;;;;16.40;48.90;;;;;;5072918;28;19916;-87
2022/11/15 00:26:27;;;;;;;;;;;16.50;49.00;;;;;;5059278;28;19959;-88
2022/11/15 00:28:52;;;;;;;;;;;16.50;49.00;;;;;;5066441;28;19916;-85
2022/11/15 00:31:18;;;;;;;;;;;16.50;48.90;;;;;;5052708;28;19924;-88
2022/11/15 00:33:44;;;;;;;;;;;16.60;49.00;;;;;;5061646;28;20428;-86
2022/11/15 00:36:10;;;;;;;;;;;16.60;49.00;;;;;;5073699;28;19980;-86
2022/11/15 00:38:37;;;;;;;;;;;16.70;48.90;;;;;;5072003;28;19942;-88
2022/11/15 00:41:05;;;;;;;;;;;16.70;48.90;;;;;;5072810;28;19917;-87
2022/11/15 00:43:31;;;;;;;;;;;16.70;49.00;;;;;;5069342;28;20014;-88
2022/11/15 00:45:56;;;;;;;;;;;16.70;49.00;;;;;;5075064;28;19987;-90
2022/11/15 00:48:22;;;;;;;;;;;16.80;48.80;;;;;;5075984;28;19913;-87
2022/11/15 00:50:48;;;;;;;;;;;16.80;48.80;;;;;;5073755;28;19922;-88
2022/11/15 00:53:13;;;;;;;;;;;16.70;48.90;;;;;;5072582;28;20359;-86
2022/11/15 00:55:39;;;;;;;;;;;16.80;49.10;;;;;;5054001;28;20315;-87
2022/11/15 00:58:04;;;;;;;;;;;16.80;49.00;;;;;;5051493;28;20299;-87
2022/11/15 01:00:30;;;;;;;;;;;16.80;49.10;;;;;;5051495;28;19925;-88
2022/11/15 01:02:55;;;;;;;;;;;16.90;49.10;;;;;;5069721;28;19912;-88
2022/11/15 01:05:21;;;;;;;;;;;16.90;49.20;;;;;;5063469;28;19920;-88
2022/11/15 01:07:46;;;;;;;;;;;16.90;49.20;;;;;;5052837;28;20259;-89
2022/11/15 01:10:12;;;;;;;;;;;17.00;49.10;;;;;;5064436;28;19916;-85
2022/11/15 01:12:40;;;;;;;;;;;17.00;49.20;;;;;;5071153;28;19919;-87
2022/11/15 01:15:05;;;;;;;;;;;17.00;49.30;;;;;;5072726;28;19939;-86
2022/11/15 01:17:31;;;;;;;;;;;17.00;49.50;;;;;;5070944;28;19925;-86
2022/11/15 01:19:57;;;;;;;;;;;17.00;49.60;;;;;;5067760;28;19916;-88
2022/11/15 01:22:22;;;;;;;;;;;17.00;49.70;;;;;;5058390;28;19908;-87
2022/11/15 01:24:51;;;;;;;;;;;17.10;49.80;;;;;;5073115;28;20309;-89
2022/11/15 01:27:16;;;;;;;;;;;17.10;49.90;;;;;;5066759;28;19913;-87
2022/11/15 01:29:42;;;;;;;;;;;17.20;49.90;;;;;;5064099;28;19962;-88
2022/11/15 01:32:07;;;;;;;;;;;17.20;50.00;;;;;;5061694;28;20372;-88
2022/11/15 01:34:33;;;;;;;;;;;17.30;50.00;;;;;;5068642;28;19920;-88
2022/11/15 01:36:59;;;;;;;;;;;17.30;50.00;;;;;;5060140;28;19974;-87
2022/11/15 01:39:24;;;;;;;;;;;17.30;50.00;;;;;;5050691;28;19909;-86
2022/11/15 01:41:50;;;;;;;;;;;17.40;50.00;;;;;;5055135;28;19916;-88
2022/11/15 01:44:36;;;;;;;;;;;17.50;50.00;;;;;;5062167;28;19909;-88
2022/11/15 01:47:04;;;;;;;;;;;17.50;50.00;;;;;;5072909;28;19978;-88
2022/11/15 01:49:30;;;;;;;;;;;17.60;50.10;;;;;;5051419;28;20268;-86
2022/11/15 01:51:57;;;;;;;;;;;17.70;50.00;;;;;;5057529;28;20283;-88
2022/11/15 01:54:23;;;;;;;;;;;17.70;50.10;;;;;;5055530;28;19909;-87
2022/11/15 01:56:51;;;;;;;;;;;17.70;50.10;;;;;;5050681;28;19974;-87
2022/11/15 01:59:18;;;;;;;;;;;17.70;50.20;;;;;;5050160;28;19916;-87
2022/11/15 02:01:46;;;;;;;;;;;17.70;50.20;;;;;;5052195;28;20432;-88
2022/11/15 02:04:14;;;;;;;;;;;17.70;50.20;;;;;;5049771;28;19909;-88
2022/11/15 02:06:40;;;;;;;;;;;17.60;50.20;;;;;;5051482;28;19948;-88
2022/11/15 02:09:05;;;;;;;;;;;17.50;50.30;;;;;;5052682;28;19951;-86
2022/11/15 02:11:31;;;;;;;;;;;17.40;50.40;;;;;;5063418;28;19920;-87
2022/11/15 02:13:57;;;;;;;;;;;17.30;50.70;;;;;;5062159;28;19919;-88
2022/11/15 02:16:35;;;;;;;;;;;17.30;50.90;;;;;;5050275;28;19921;-86
2022/11/15 02:19:00;;;;;;;;;;;17.30;51.20;;;;;;5065199;28;19916;-87
2022/11/15 02:21:33;;;;;;;;;;;17.30;51.30;;;;;;5072874;28;20033;-88
2022/11/15 02:24:17;;;;;;;;;;;17.30;51.40;;;;;;5071679;28;20007;-87
2022/11/15 02:26:51;;;;;;;;;;;17.40;51.40;;;;;;5075056;28;19921;-89
2022/11/15 02:29:20;;;;;;;;;;;17.40;51.50;;;;;;5070885;28;20016;-88
2022/11/15 02:32:15;;;;;;;;;;;17.50;51.50;;;;;;5053520;28;19916;-86
2022/11/15 02:34:57;;;;;;;;;;;17.60;51.50;;;;;;5061663;28;19952;-88
2022/11/15 02:37:52;;;;;;;;;;;17.60;51.60;;;;;;5075204;28;19916;-86
2022/11/15 02:40:32;;;;;;;;;;;17.60;51.70;;;;;;5072924;28;20314;-87
2022/11/15 02:45:50;;;;;;;;;;;17.70;51.70;;;;;;5055888;28;19971;-87
2022/11/15 02:48:16;;;;;;;;;;;17.80;51.80;;;;;;5049803;28;19909;-88
2022/11/15 02:50:42;;;;;;;;;;;17.80;51.80;;;;;;5052133;28;20367;-87
2022/11/15 02:53:08;;;;;;;;;;;17.80;51.80;;;;;;5057628;28;19920;-88
2022/11/15 02:55:35;;;;;;;;;;;17.80;51.80;;;;;;5067151;28;19979;-89
2022/11/15 02:58:03;;;;;;;;;;;17.80;51.90;;;;;;5059622;28;19950;-86
2022/11/15 03:00:34;;;;;;;;;;;17.80;51.90;;;;;;5069027;28;20022;-86
2022/11/15 03:03:18;;;;;;;;;;;17.80;51.90;;;;;;5063673;28;19916;-89
2022/11/15 03:05:53;;;;;;;;;;;17.90;52.00;;;;;;5055473;28;19944;-88
2022/11/15 03:08:37;;;;;;;;;;;17.90;52.10;;;;;;5056235;28;19909;-87
2022/11/15 03:11:10;;;;;;;;;;;17.90;52.20;;;;;;5069364;28;19917;-88
2022/11/15 03:13:39;;;;;;;;;;;17.80;52.30;;;;;;5074020;28;20185;-89
2022/11/15 03:16:09;;;;;;;;;;;17.90;52.30;;;;;;5075317;28;19916;-88
2022/11/15 03:18:40;;;;;;;;;;;17.90;52.30;;;;;;5069881;28;19909;-88
2022/11/15 03:21:07;;;;;;;;;;;18.00;52.30;;;;;;5064018;28;19967;-87
2022/11/15 03:23:33;;;;;;;;;;;17.90;52.30;;;;;;5051011;28;20476;-88
2022/11/15 03:26:00;;;;;;;;;;;18.00;52.40;;;;;;5049783;28;19920;-87
2022/11/15 03:28:31;;;;;;;;;;;18.00;52.40;;;;;;5051686;28;19915;-87
2022/11/15 03:30:58;;;;;;;;;;;18.00;52.40;;;;;;5054806;28;19917;-88
2022/11/15 03:33:24;;;;;;;;;;;18.00;52.50;;;;;;5058751;28;20009;-88
2022/11/15 03:35:49;;;;;;;;;;;18.00;52.50;;;;;;5067680;28;19920;-88
2022/11/15 03:38:23;;;;;;;;;;;18.00;52.50;;;;;;5068570;28;19913;-89
2022/11/15 03:40:52;;;;;;;;;;;18.10;52.50;;;;;;5074265;28;19927;-88
2022/11/15 03:43:23;;;;;;;;;;;18.10;52.40;;;;;;5068331;28;19920;-87
2022/11/15 03:46:07;;;;;;;;;;;18.10;52.40;;;;;;5057829;28;19978;-88
2022/11/15 03:48:53;;;;;;;;;;;18.20;52.40;;;;;;5053954;28;20119;-88
2022/11/15 03:51:19;;;;;;;;;;;18.20;52.40;;;;;;5070119;28;19917;-88
2022/11/15 03:53:45;;;;;;;;;;;18.20;52.30;;;;;;5074035;28;19938;-88
2022/11/15 03:56:10;;;;;;;;;;;18.20;52.40;;;;;;5068112;28;19974;-86
2022/11/15 03:58:36;;;;;;;;;;;18.20;52.40;;;;;;5073826;28;19916;-88
2022/11/15 04:01:01;;;;;;;;;;;18.20;52.40;;;;;;5067871;28;19929;-88
2022/11/15 04:03:27;;;;;;;;;;;18.20;52.40;;;;;;5057639;28;19913;-88
2022/11/15 04:05:52;;;;;;;;;;;18.30;52.30;;;;;;5059394;28;19924;-86
2022/11/15 04:08:18;;;;;;;;;;;18.30;52.20;;;;;;5072483;28;20399;-87
2022/11/15 04:10:43;;;;;;;;;;;18.30;52.10;;;;;;5073495;28;19916;-89
2022/11/15 04:13:09;;;;;;;;;;;18.30;52.10;;;;;;5074261;28;19962;-87
2022/11/15 04:15:34;;;;;;;;;;;18.30;52.10;;;;;;5073461;28;19917;-88
2022/11/15 04:18:00;;;;;;;;;;;18.30;52.10;;;;;;5074605;28;19921;-89
2022/11/15 04:26:20;;;;;;;;;;;18.30;52.10;;;;;;5055550;28;19942;-86
2022/11/15 04:31:30;;;;;;;;;;;18.30;52.10;;;;;;5056186;28;20303;-88
2022/11/15 04:33:56;;;;;;;;;;;18.30;52.20;;;;;;5064821;28;20263;-88
2022/11/15 04:39:06;;;;;;;;;;;18.20;52.20;;;;;;5059514;28;19916;-88
2022/11/15 04:41:31;;;;;;;;;;;18.20;52.30;;;;;;5073211;28;19921;-87
2022/11/15 04:43:57;;;;;;;;;;;18.20;52.30;;;;;;5069707;28;19908;-88
2022/11/15 04:46:23;;;;;;;;;;;18.20;52.30;;;;;;5057740;28;20007;-86
2022/11/15 04:48:49;;;;;;;;;;;18.20;52.30;;;;;;5059495;28;20386;-88
2022/11/15 04:51:14;;;;;;;;;;;18.20;52.30;;;;;;5051388;28;19917;-87
2022/11/15 04:53:40;;;;;;;;;;;18.20;52.30;;;;;;5062059;28;19913;-87
2022/11/15 04:56:05;;;;;;;;;;;18.20;52.30;;;;;;5073156;28;19924;-87
2022/11/15 04:58:31;;;;;;;;;;;18.20;52.30;;;;;;5079941;28;19920;-86
2022/11/15 05:00:56;;;;;;;;;;;18.20;52.20;;;;;;5072573;28;19916;-87
2022/11/15 05:06:06;;;;;;;;;;;18.20;52.20;;;;;;5055105;28;20012;-88
2022/11/15 05:08:32;;;;;;;;;;;18.20;52.20;;;;;;5051986;28;19956;-88
2022/11/15 05:10:57;;;;;;;;;;;18.20;52.20;;;;;;5053016;28;19999;-88
2022/11/15 05:13:23;;;;;;;;;;;18.20;52.20;;;;;;5068333;28;20271;-88
2022/11/15 05:15:48;;;;;;;;;;;18.20;52.20;;;;;;5051436;28;19917;-85
2022/11/15 05:18:14;;;;;;;;;;;18.20;52.20;;;;;;5086279;28;20363;-84
2022/11/15 05:20:39;;;;;;;;;;;18.30;52.10;;;;;;5064938;28;20045;-87
2022/11/15 05:23:05;;;;;;;;;;;18.20;52.10;;;;;;5063906;28;19913;-87
2022/11/15 05:25:31;;;;;;;;;;;18.20;52.10;;;;;;5067454;28;19925;-87
2022/11/15 05:27:56;;;;;;;;;;;18.20;52.10;;;;;;5069411;28;19909;-88
2022/11/15 05:30:22;;;;;;;;;;;18.30;52.10;;;;;;5052765;28;19964;-86
2022/11/15 05:32:47;;;;;;;;;;;18.30;52.10;;;;;;5059109;28;19917;-86
2022/11/15 05:35:36;;;;;;;;;;;18.30;52.10;;;;;;5058907;28;19916;-86
2022/11/15 05:38:02;;;;;;;;;;;18.30;52.00;;;;;;5070877;28;19935;-88
2022/11/15 05:40:28;;;;;;;;;;;18.30;52.00;;;;;;5065853;28;19999;-88
2022/11/15 05:42:56;;;;;;;;;;;18.30;52.00;;;;;;5064372;28;20386;-88
2022/11/15 05:45:22;;;;;;;;;;;18.30;52.00;;;;;;5065094;28;19920;-89
2022/11/15 05:47:48;;;;;;;;;;;18.30;52.00;;;;;;5067782;28;19931;-88
2022/11/15 05:50:15;;;;;;;;;;;18.40;51.90;;;;;;5061585;28;19983;-87
2022/11/15 05:52:41;;;;;;;;;;;18.40;51.90;;;;;;5060788;28;19962;-89
2022/11/15 05:55:07;;;;;;;;;;;18.40;51.90;;;;;;5070558;28;19916;-87
2022/11/15 05:57:33;;;;;;;;;;;18.40;51.90;;;;;;5055586;28;20393;-88
2022/11/15 05:59:58;;;;;;;;;;;18.40;51.90;;;;;;5063709;28;19912;-87
2022/11/15 06:02:25;;;;;;;;;;;18.40;51.90;;;;;;5058073;28;19935;-87
2022/11/15 06:04:51;;;;;;;;;;;18.40;51.80;;;;;;5067687;28;19923;-88
2022/11/15 06:07:16;;;;;;;;;;;18.40;51.90;;;;;;5061750;28;19925;-88
2022/11/15 06:09:42;;;;;;;;;;;18.40;51.80;;;;;;5062007;28;19924;-88
2022/11/15 06:12:07;;;;;;;;;;;18.40;51.80;;;;;;5061577;28;19916;-85
2022/11/15 06:14:33;;;;;;;;;;;18.40;51.90;;;;;;5055466;28;19942;-86
2022/11/15 06:16:59;;;;;;;;;;;18.50;51.90;;;;;;5059175;28;20493;-88
2022/11/15 06:19:32;;;;;;;;;;;18.50;51.80;;;;;;5064276;28;19921;-88
2022/11/15 06:21:58;;;;;;;;;;;18.50;51.80;;;;;;5062633;28;19931;-87
2022/11/15 06:24:24;;;;;;;;;;;18.50;51.80;;;;;;5064915;28;20398;-88
2022/11/15 06:26:49;;;;;;;;;;;18.50;51.70;;;;;;5057568;28;19917;-86
2022/11/15 06:29:15;;;;;;;;;;;18.60;51.70;;;;;;5064824;28;19998;-89
2022/11/15 06:31:40;;;;;;;;;;;18.60;51.70;;;;;;5065995;28;19920;-89
2022/11/15 06:34:06;;;;;;;;;;;18.70;51.70;;;;;;5060687;28;19920;-87
2022/11/15 06:36:33;;;;;;;;;;;18.60;51.60;;;;;;5061477;28;20029;-89
2022/11/15 06:38:59;;;;;;;;;;;18.70;51.60;;;;;;5056407;28;19924;-89
2022/11/15 06:41:25;;;;;;;;;;;18.70;51.50;;;;;;5065069;28;19916;-89
2022/11/15 06:43:50;;;;;;;;;;;18.70;51.40;;;;;;5065207;28;19920;-88
2022/11/15 06:46:16;;;;;;;;;;;18.70;51.50;;;;;;5070322;28;19912;-87
2022/11/15 06:48:41;;;;;;;;;;;18.70;51.50;;;;;;5057637;28;19921;-84
2022/11/15 06:51:10;;;;;;;;;;;18.70;51.40;;;;;;5065946;28;19913;-85
2022/11/15 06:53:38;;;;;;;;;;;18.70;51.40;;;;;;5064536;28;20428;-88
2022/11/15 06:56:05;;;;;;;;;;;18.70;51.30;;;;;;5066297;28;19924;-87
2022/11/15 06:58:30;;;;;;;;;;;18.70;51.40;;;;;;5060440;28;19999;-87
2022/11/15 07:01:14;;;;;;;;;;;18.80;51.50;;;;;;5054042;28;19917;-89
2022/11/15 07:03:41;;;;;;;;;;;19.00;51.70;;;;;;5058884;28;20369;-88
2022/11/15 07:06:07;;;;;;;;;;;19.10;51.50;;;;;;5061463;28;20533;-88
2022/11/15 07:08:32;;;;;;;;;;;19.10;51.00;;;;;;5064601;28;19920;-86
2022/11/15 07:10:59;;;;;;;;;;;19.20;50.90;;;;;;5067980;28;19913;-89
2022/11/15 07:13:25;;;;;;;;;;;19.30;51.00;;;;;;5060043;28;19960;-89
2022/11/15 07:15:51;;;;;;;;;;;19.40;51.00;;;;;;5058896;28;19963;-86
2022/11/15 07:18:17;;;;;;;;;;;19.50;50.30;;;;;;5066154;28;20374;-88
2022/11/15 07:20:43;;;;;;;;;;;19.60;50.10;;;;;;5069937;28;19916;-88
2022/11/15 07:23:08;;;;;;;;;;;19.60;49.80;;;;;;5062127;28;20709;-88
2022/11/15 07:25:34;;;;;;;;;;;19.70;49.70;;;;;;5063058;28;19916;-88
2022/11/15 07:27:59;;;;;;;;;;;19.80;49.70;;;;;;5066755;28;19928;-88
2022/11/15 07:30:26;;;;;;;;;;;20.00;50.10;;;;;;5054061;28;20263;-87
2022/11/15 07:32:52;;;;;;;;;;;20.40;50.20;;;;;;5058467;28;19928;-88
2022/11/15 07:35:18;;;;;;;;;;;20.70;49.10;;;;;;5066589;28;19987;-88
2022/11/15 07:37:43;;;;;;;;;;;21.20;48.50;;;;;;5056885;28;19944;-86
2022/11/15 07:40:09;;;;;;;;;;;21.60;47.80;;;;;;5066175;28;19940;-86
2022/11/15 07:42:53;;;;;;;;;;;21.90;46.70;;;;;;5057900;28;20354;-88
2022/11/15 07:45:19;;;;;;;;;;;22.30;45.70;;;;;;5057843;28;19952;-87
2022/11/15 07:47:48;;;;;;;;;;;22.40;44.50;;;;;;5067153;28;19964;-85
2022/11/15 07:50:14;;;;;;;;;;;22.40;43.60;;;;;;5054956;28;19921;-88
2022/11/15 07:52:40;;;;;;;;;;;22.30;43.20;;;;;;5069868;28;19923;-86
2022/11/15 07:55:06;;;;;;;;;;;22.10;43.20;;;;;;5068886;28;20023;-87
2022/11/15 07:57:32;;;;;;;;;;;21.90;43.40;;;;;;5050467;28;19928;-86
2022/11/15 07:59:58;;;;;;;;;;;21.80;43.70;;;;;;5049305;28;20363;-88
2022/11/15 08:02:23;;;;;;;;;;;21.70;43.80;;;;;;5063516;28;20433;-88
2022/11/15 08:04:49;;;;;;;;;;;21.50;44.10;;;;;;5068903;28;19920;-89
2022/11/15 08:07:14;;;;;;;;;;;21.40;44.30;;;;;;5058945;28;19962;-88
2022/11/15 08:09:40;;;;;;;;;;;21.30;44.50;;;;;;5069371;28;19920;-89
2022/11/15 08:12:06;;;;;;;;;;;21.30;44.60;;;;;;5070852;28;19936;-86
2022/11/15 08:14:31;;;;;;;;;;;21.30;44.90;;;;;;5069071;28;19921;-88
2022/11/15 08:16:58;;;;;;;;;;;21.50;45.20;;;;;;5052671;28;19931;-86
2022/11/15 08:19:23;;;;;;;;;;;21.70;45.10;;;;;;5057257;28;19917;-86
2022/11/15 08:21:49;;;;;;;;;;;21.80;44.40;;;;;;5059532;28;19917;-87
2022/11/15 08:24:15;;;;;;;;;;;22.20;44.50;;;;;;5070338;28;19912;-89
2022/11/15 08:26:41;;;;;;;;;;;22.50;43.90;;;;;;5053114;28;20221;-88
2022/11/15 08:29:09;;;;;;;;;;;22.80;43.30;;;;;;5057060;28;19923;-89
2022/11/15 08:31:36;;;;;;;;;;;23.00;42.60;;;;;;5055980;28;19987;-88
2022/11/15 08:34:02;;;;;;;;;;;23.40;42.50;;;;;;5054745;28;20614;-88
2022/11/15 08:36:28;;;;;;;;;;;23.70;41.90;;;;;;5055279;28;20002;-87
2022/11/15 08:38:57;;;;;;;;;;;23.90;41.40;;;;;;5056658;28;19921;-87
2022/11/15 08:41:30;;;;;;;;;;;24.10;40.60;;;;;;5060254;28;19978;-89
2022/11/15 08:43:58;;;;;;;;;;;24.20;40.10;;;;;;5053306;28;19917;-88
2022/11/15 08:46:25;;;;;;;;;;;24.40;40.10;;;;;;5067842;28;20179;-89
2022/11/15 08:48:51;;;;;;;;;;;24.60;39.50;;;;;;5058454;28;19923;-89
2022/11/15 08:51:16;;;;;;;;;;;24.70;39.40;;;;;;5061242;28;19920;-90
2022/11/15 08:53:43;;;;;;;;;;;24.70;39.00;;;;;;5050575;28;19986;-87
2022/11/15 08:56:09;;;;;;;;;;;24.70;38.20;;;;;;5049743;28;19921;-86
2022/11/15 08:58:36;;;;;;;;;;;24.50;37.90;;;;;;5050592;28;19955;-90
2022/11/15 09:01:01;;;;;;;;;;;24.60;38.10;;;;;;5052124;28;19951;-91
2022/11/15 09:03:28;;;;;;;;;;;24.60;38.10;;;;;;5050607;28;19913;-87
2022/11/15 09:05:54;;;;;;;;;;;24.70;38.00;;;;;;5049576;28;19956;-86
2022/11/15 09:08:19;;;;;;;;;;;24.70;37.70;;;;;;5049525;28;20648;-89
2022/11/15 09:10:45;;;;;;;;;;;24.70;37.80;;;;;;5056756;28;20028;-89
2022/11/15 09:13:12;;;;;;;;;;;24.80;37.70;;;;;;5052642;28;19913;-87
2022/11/15 09:15:37;;;;;;;;;;;24.80;37.50;;;;;;5048678;28;19921;-89
2022/11/15 09:18:03;;;;;;;;;;;24.90;37.30;;;;;;5048648;28;19928;-90
2022/11/15 09:20:29;;;;;;;;;;;25.10;37.50;;;;;;5051337;28;19921;-87
2022/11/15 09:22:55;;;;;;;;;;;25.20;36.70;;;;;;5051451;28;19913;-87
2022/11/15 09:25:20;;;;;;;;;;;25.20;36.50;;;;;;5049175;28;19920;-89
2022/11/15 09:27:46;;;;;;;;;;;25.20;36.40;;;;;;5047350;28;20014;-89
2022/11/15 09:30:12;;;;;;;;;;;25.20;36.10;;;;;;5049279;28;19931;-86
2022/11/15 09:32:37;;;;;;;;;;;25.20;36.40;;;;;;5052966;28;19921;-88
2022/11/15 09:35:03;;;;;;;;;;;25.30;35.90;;;;;;5067312;28;19920;-88
2022/11/15 09:37:31;;;;;;;;;;;25.30;35.80;;;;;;5068714;28;20315;-89
2022/11/15 09:39:56;;;;;;;;;;;25.30;36.00;;;;;;5068835;28;19927;-88
2022/11/15 09:42:22;;;;;;;;;;;25.30;35.40;;;;;;5068164;28;19999;-89
2022/11/15 09:44:51;;;;;;;;;;;25.20;35.30;;;;;;5062383;28;19921;-88
2022/11/15 09:47:26;;;;;;;;;;;25.00;35.20;;;;;;5047129;28;19913;-88
2022/11/15 09:49:53;;;;;;;;;;;25.00;35.40;;;;;;5047092;28;20417;-88
2022/11/15 09:52:19;;;;;;;;;;;24.90;35.50;;;;;;5046764;28;19912;-86
2022/11/15 09:54:47;;;;;;;;;;;24.90;35.60;;;;;;5051074;28;19920;-88
2022/11/15 09:57:16;;;;;;;;;;;25.00;35.90;;;;;;5046240;28;20493;-88
2022/11/15 10:00:05;;;;;;;;;;;25.00;35.70;;;;;;5049451;28;19925;-89
2022/11/15 10:02:54;;;;;;;;;;;25.00;35.50;;;;;;5044475;28;20512;-89
2022/11/15 10:05:21;;;;;;;;;;;24.80;35.30;;;;;;5063290;28;19927;-86
2022/11/15 10:07:50;;;;;;;;;;;24.70;35.30;;;;;;5049506;28;20379;-86
2022/11/15 10:10:46;;;;;;;;;;;24.80;35.50;;;;;;5056372;28;19925;-86
2022/11/15 10:13:15;;;;;;;;;;;24.70;35.40;;;;;;5044772;28;20018;-86
2022/11/15 10:15:42;;;;;;;;;;;24.70;35.20;;;;;;5048913;28;20146;-90
2022/11/15 10:18:28;;;;;;;;;;;24.80;35.10;;;;;;5050513;28;19928;-89
2022/11/15 10:20:58;;;;;;;;;;;24.90;34.90;;;;;;5047883;28;19920;-88
2022/11/15 10:23:24;;;;;;;;;;;24.70;34.50;;;;;;5049544;28;20320;-88
2022/11/15 10:26:00;;;;;;;;;;;24.80;34.50;;;;;;5049756;28;20380;-87
2022/11/15 10:28:27;;;;;;;;;;;24.70;34.40;;;;;;5046786;28;19913;-88
2022/11/15 10:30:54;;;;;;;;;;;24.70;34.20;;;;;;5049857;28;19932;-91
2022/11/15 10:33:36;;;;;;;;;;;24.60;34.10;;;;;;5050183;28;19916;-88
2022/11/15 10:36:13;;;;;;;;;;;24.50;33.90;;;;;;5069500;28;20362;-89
2022/11/15 10:38:48;;;;;;;;;;;24.60;34.10;;;;;;5069680;28;19982;-87
2022/11/15 10:41:15;;;;;;;;;;;24.60;34.00;;;;;;5074101;28;19917;-90
2022/11/15 10:43:41;;;;;;;;;;;24.70;33.70;;;;;;5074830;28;19942;-89
2022/11/15 10:46:20;;;;;;;;;;;24.70;33.60;;;;;;5059467;28;20015;-90
2022/11/15 10:48:46;;;;;;;;;;;24.80;33.40;;;;;;5054924;28;20411;-90
2022/11/15 10:51:27;;;;;;;;;;;24.90;33.40;;;;;;5053323;28;19920;-89
2022/11/15 10:53:54;;;;;;;;;;;25.00;33.10;;;;;;5055604;28;20441;-88
2022/11/15 10:56:21;;;;;;;;;;;25.10;32.70;;;;;;5054443;28;19917;-89
2022/11/15 10:58:54;;;;;;;;;;;25.10;32.30;;;;;;5054532;28;19916;-90
2022/11/15 11:01:22;;;;;;;;;;;25.00;32.00;;;;;;5052529;28;19924;-90
2022/11/15 11:04:07;;;;;;;;;;;25.10;32.10;;;;;;5056879;28;20433;-88
2022/11/15 11:06:45;;;;;;;;;;;24.90;31.90;;;;;;5053996;28;19917;-89
2022/11/15 11:09:21;;;;;;;;;;;25.00;32.10;;;;;;5058368;28;19998;-89
2022/11/15 11:11:48;;;;;;;;;;;25.10;32.20;;;;;;5059110;28;19924;-91
2022/11/15 11:14:24;;;;;;;;;;;25.20;32.20;;;;;;5054674;28;19951;-91
2022/11/15 11:16:55;;;;;;;;;;;25.40;32.60;;;;;;5071984;28;20022;-86
2022/11/15 11:19:35;;;;;;;;;;;25.50;32.20;;;;;;5074937;28;19913;-87
2022/11/15 11:22:19;;;;;;;;;;;25.50;32.10;;;;;;5073263;28;19913;-86
2022/11/15 11:24:56;;;;;;;;;;;25.40;31.90;;;;;;5076799;28;19920;-90
2022/11/15 11:27:31;;;;;;;;;;;25.40;31.90;;;;;;5075583;28;19916;-87
2022/11/15 11:29:57;;;;;;;;;;;25.30;32.00;;;;;;5081132;28;19983;-91
2022/11/15 11:32:41;;;;;;;;;;;25.20;32.10;;;;;;5073813;28;19971;-91
2022/11/15 11:35:13;;;;;;;;;;;25.30;32.30;;;;;;5073356;28;19920;-88
2022/11/15 11:37:48;;;;;;;;;;;25.20;32.40;;;;;;5072751;28;20019;-87
2022/11/15 11:40:23;;;;;;;;;;;25.20;32.70;;;;;;5073702;28;20050;-92
2022/11/15 11:43:01;;;;;;;;;;;25.30;32.80;;;;;;5074842;28;19928;-89
2022/11/15 11:45:26;;;;;;;;;;;25.30;32.50;;;;;;5061773;28;20012;-88
2022/11/15 11:48:04;;;;;;;;;;;25.40;32.80;;;;;;5065750;28;20376;-90
2022/11/15 11:50:31;;;;;;;;;;;25.40;32.90;;;;;;5072608;28;19928;-89
2022/11/15 11:52:56;;;;;;;;;;;25.40;32.60;;;;;;5072110;28;19965;-91
2022/11/15 11:55:22;;;;;;;;;;;25.30;32.30;;;;;;5069832;28;19920;-88
2022/11/15 11:57:53;;;;;;;;;;;25.00;32.20;;;;;;5069839;28;19924;-87
2022/11/15 12:00:20;;;;;;;;;;;24.80;32.50;;;;;;5071894;28;19970;-89
2022/11/15 12:03:01;;;;;;;;;;;24.50;32.80;;;;;;5072464;28;19923;-90
2022/11/15 12:05:30;;;;;;;;;;;24.20;33.20;;;;;;5070657;28;20426;-91
2022/11/15 12:08:19;;;;;;;;;;;23.70;33.60;;;;;;5072207;28;20381;-91
2022/11/15 12:10:46;;;;;;;;;;;23.30;34.00;;;;;;5061183;28;19917;-91
2022/11/15 12:13:16;;;;;;;;;;;23.00;34.60;;;;;;5049212;28;20179;-89
2022/11/15 12:15:43;;;;;;;;;;;22.90;35.00;;;;;;5050658;28;19921;-86
2022/11/15 12:18:12;;;;;;;;;;;22.70;35.30;;;;;;5049638;28;19927;-87
2022/11/15 12:20:40;;;;;;;;;;;22.60;35.70;;;;;;5055137;28;19991;-87
2022/11/15 12:23:08;;;;;;;;;;;22.30;36.00;;;;;;5050929;28;19916;-88
2022/11/15 12:25:51;;;;;;;;;;;22.20;36.20;;;;;;5050513;28;20426;-88
2022/11/15 12:28:20;;;;;;;;;;;22.20;36.40;;;;;;5054361;28;19924;-90
2022/11/15 12:30:52;;;;;;;;;;;22.10;36.50;;;;;;5055348;28;20387;-87
2022/11/15 12:33:29;;;;;;;;;;;22.00;36.70;;;;;;5056398;28;19921;-86
2022/11/15 12:35:59;;;;;;;;;;;21.80;36.90;;;;;;5072689;28;19958;-88
2022/11/15 12:38:43;;;;;;;;;;;21.80;37.00;;;;;;5071653;28;19927;-89
2022/11/15 12:41:14;;;;;;;;;;;21.80;37.10;;;;;;5073407;28;19926;-86
2022/11/15 12:43:43;;;;;;;;;;;21.70;37.30;;;;;;5055718;28;19917;-88
2022/11/15 12:46:20;;;;;;;;;;;21.70;37.40;;;;;;5055986;28;19928;-85
2022/11/15 12:48:47;;;;;;;;;;;21.70;37.40;;;;;;5058223;28;20367;-89
2022/11/15 12:51:13;;;;;;;;;;;21.60;37.50;;;;;;5054730;28;19917;-86
2022/11/15 12:53:39;;;;;;;;;;;21.60;37.60;;;;;;5072603;28;19912;-88
2022/11/15 12:56:17;;;;;;;;;;;21.50;37.70;;;;;;5072537;28;19920;-88
2022/11/15 12:58:51;;;;;;;;;;;21.50;37.70;;;;;;5076281;28;20574;-87
2022/11/15 13:04:08;;;;;;;;;;;21.40;37.60;;;;;;5053212;28;19912;-90
2022/11/15 13:06:38;;;;;;;;;;;21.30;37.80;;;;;;5054142;28;19925;-91
2022/11/15 13:09:24;;;;;;;;;;;21.30;37.90;;;;;;5052999;28;19913;-89
2022/11/15 13:11:50;;;;;;;;;;;21.30;38.00;;;;;;5053883;28;19916;-87
2022/11/15 13:14:43;;;;;;;;;;;21.30;38.10;;;;;;5053303;28;19912;-88
2022/11/15 13:17:18;;;;;;;;;;;21.30;38.10;;;;;;5050349;28;19944;-89
2022/11/15 13:19:45;;;;;;;;;;;21.20;38.20;;;;;;5051860;28;19952;-87
2022/11/15 13:25:03;;;;;;;;;;;21.20;38.50;;;;;;5051001;28;19932;-88
2022/11/15 13:27:28;;;;;;;;;;;21.20;38.50;;;;;;5052438;28;20399;-87
2022/11/15 13:29:54;;;;;;;;;;;21.30;38.60;;;;;;5054016;28;19931;-89
2022/11/15 13:32:20;;;;;;;;;;;21.20;38.50;;;;;;5053487;28;19944;-88
2022/11/15 13:34:47;;;;;;;;;;;21.30;38.40;;;;;;5066998;28;19920;-91
2022/11/15 13:37:28;;;;;;;;;;;21.20;38.10;;;;;;5071613;28;20070;-88
2022/11/15 13:39:54;;;;;;;;;;;21.30;38.10;;;;;;5070247;28;19982;-85
2022/11/15 13:42:20;;;;;;;;;;;21.30;38.00;;;;;;5074111;28;19912;-89
2022/11/15 13:44:59;;;;;;;;;;;21.30;38.10;;;;;;5067534;28;20398;-87
2022/11/15 13:47:29;;;;;;;;;;;21.40;38.00;;;;;;5057459;28;19913;-87
2022/11/15 13:49:58;;;;;;;;;;;21.30;38.00;;;;;;5058533;28;19960;-87
2022/11/15 13:52:27;;;;;;;;;;;21.30;38.40;;;;;;5051577;28;19913;-88
2022/11/15 13:55:10;;;;;;;;;;;21.30;38.80;;;;;;5055039;28;20429;-88
2022/11/15 13:57:36;;;;;;;;;;;21.30;39.50;;;;;;5055584;28;19988;-87
2022/11/15 14:00:03;;;;;;;;;;;21.20;40.30;;;;;;5048792;28;19997;-86
2022/11/15 14:02:34;;;;;;;;;;;21.10;40.40;;;;;;5053019;28;19912;-89
2022/11/15 14:05:11;;;;;;;;;;;21.00;40.70;;;;;;5051651;28;19932;-91
2022/11/15 14:07:38;;;;;;;;;;;21.00;41.00;;;;;;5049983;28;20364;-86
2022/11/15 14:10:37;;;;;;;;;;;20.90;41.30;;;;;;5053312;28;19924;-91
2022/11/15 14:13:03;;;;;;;;;;;20.80;41.50;;;;;;5030887;28;19919;-88
2022/11/15 14:15:29;;;;;;;;;;;20.80;41.60;;;;;;5049657;28;20083;-88
2022/11/15 14:17:55;;;;;;;;;;;20.70;41.80;;;;;;5055733;28;19971;-87
2022/11/15 14:20:23;;;;;;;;;;;20.60;41.90;;;;;;5054125;28;19921;-87
2022/11/15 14:22:56;;;;;;;;;;;20.60;41.90;;;;;;5050963;28;19917;-91
2022/11/15 14:25:23;;;;;;;;;;;20.50;41.90;;;;;;5052529;28;19924;-88
2022/11/15 14:28:10;;;;;;;;;;;20.50;41.90;;;;;;5052112;28;19913;-89
2022/11/15 14:30:36;;;;;;;;;;;20.40;41.90;;;;;;5051696;28;19963;-89
2022/11/15 14:33:02;;;;;;;;;;;20.30;41.90;;;;;;5052743;28;19921;-91
2022/11/15 14:35:28;;;;;;;;;;;20.30;41.80;;;;;;5069138;28;19924;-88
2022/11/15 14:37:54;;;;;;;;;;;20.20;41.80;;;;;;5070912;28;20420;-89
2022/11/15 14:40:20;;;;;;;;;;;20.20;41.80;;;;;;5071476;28;20580;-90
2022/11/15 14:42:47;;;;;;;;;;;20.10;41.80;;;;;;5070109;28;19974;-90
2022/11/15 14:45:14;;;;;;;;;;;20.10;41.80;;;;;;5060042;28;19932;-88
2022/11/15 14:47:40;;;;;;;;;;;20.00;41.80;;;;;;5052487;28;19923;-91
2022/11/15 14:50:06;;;;;;;;;;;20.00;41.70;;;;;;5052228;28;20216;-91